createdAt,value
2019-02-12T00:02:16.395Z,2.30
2019-02-12T00:07:30.793Z,2.17
2019-02-12T00:13:04.330Z,2.23
2019-02-12T00:18:18.766Z,2.13
2019-02-12T00:28:42.661Z,1.87
2019-02-12T00:33:57.418Z,1.90
2019-02-12T00:39:12.161Z,1.83
2019-02-12T00:44:26.781Z,2.20
2019-02-12T00:49:41.471Z,2.33
2019-02-12T00:54:56.150Z,2.10
2019-02-12T01:00:12.453Z,2.23
2019-02-12T01:05:26.947Z,2.23
2019-02-12T01:10:41.772Z,2.03
2019-02-12T01:15:57.347Z,2.63
2019-02-12T01:21:11.690Z,2.53
2019-02-12T01:26:26.344Z,2.37
2019-02-12T01:31:41.045Z,2.40
2019-02-12T01:36:55.579Z,1.90
2019-02-12T01:42:09.931Z,2.13
2019-02-12T01:47:24.547Z,1.93
2019-02-12T01:52:39.151Z,2.60
2019-02-12T01:57:53.793Z,2.30
2019-02-12T02:03:08.268Z,1.80
2019-02-12T02:08:27.759Z,2.87
2019-02-12T02:13:42.409Z,3.90
2019-02-12T02:18:57.904Z,2.53
2019-02-12T02:24:13.020Z,2.90
2019-02-12T02:29:27.758Z,2.40
2019-02-12T02:34:42.020Z,3.03
2019-02-12T02:39:56.811Z,2.30
2019-02-12T02:45:12.499Z,2.60
2019-02-12T02:50:27.301Z,2.30
2019-02-12T02:55:42.054Z,3.23
2019-02-12T03:00:56.652Z,2.50
2019-02-12T03:06:12.048Z,2.60
2019-02-12T03:11:26.777Z,3.03
2019-02-12T03:16:41.611Z,2.80
2019-02-12T03:22:03.493Z,3.13
2019-02-12T03:27:12.074Z,2.60
2019-02-12T03:32:26.614Z,3.07
2019-02-12T03:37:41.224Z,3.27
2019-02-12T03:42:57.771Z,2.77
2019-02-12T03:58:41.989Z,3.40
2019-02-12T04:03:56.258Z,2.90
2019-02-12T04:09:10.871Z,3.33
2019-02-12T04:14:25.614Z,2.77
2019-02-12T04:19:40.276Z,2.63
2019-02-12T04:24:55.038Z,2.87
2019-02-12T04:30:09.977Z,3.47
2019-02-12T04:40:46.638Z,3.07
2019-02-12T04:46:01.034Z,2.90
2019-02-12T04:51:15.615Z,3.40
2019-02-12T04:56:30.986Z,3.00
2019-02-12T05:01:45.687Z,2.57
2019-02-12T05:07:00.064Z,2.70
2019-02-12T05:12:16.714Z,2.63
2019-02-12T05:17:31.208Z,2.53
2019-02-12T05:22:45.818Z,2.93
2019-02-12T05:28:00.421Z,2.97
2019-02-12T05:33:14.812Z,2.67
2019-02-12T05:38:29.022Z,2.77
2019-02-12T05:43:43.872Z,3.23
2019-02-12T05:48:58.656Z,3.23
2019-02-12T05:54:13.162Z,3.40
2019-02-12T05:59:27.426Z,2.50
2019-02-12T06:04:42.283Z,2.50
2019-02-12T06:09:56.617Z,3.17
2019-02-12T06:15:11.113Z,3.60
2019-02-12T06:20:25.654Z,2.80
2019-02-12T06:25:40.311Z,2.70
2019-02-12T06:30:54.870Z,2.60
2019-02-12T06:36:09.207Z,2.90
2019-02-12T06:41:25.164Z,2.80
2019-02-12T06:46:39.537Z,2.63
2019-02-12T06:51:54.003Z,3.63
2019-02-12T06:57:08.631Z,2.70
2019-02-12T07:02:59.157Z,2.93
2019-02-12T07:09:15.585Z,3.10
2019-02-12T07:25:50.378Z,3.67
2019-02-12T07:31:49.777Z,3.17
2019-02-12T07:37:23.229Z,2.90
2019-02-12T07:43:38.471Z,3.77
2019-02-12T07:49:38.917Z,3.03
2019-02-12T07:55:21.521Z,3.20
2019-02-12T08:01:02.698Z,3.93
2019-02-12T08:06:41.798Z,2.80
2019-02-12T08:12:25.115Z,2.60
2019-02-12T08:18:32.057Z,2.80
2019-02-12T08:24:20.937Z,3.20
2019-02-12T08:30:14.860Z,2.63
2019-02-12T08:35:57.304Z,3.03
2019-02-12T08:41:34.643Z,3.50
2019-02-12T08:47:08.258Z,3.33
2019-02-12T08:53:04.110Z,3.07
2019-02-12T08:58:50.425Z,2.70
2019-02-12T09:04:44.438Z,3.70
2019-02-12T09:10:51.772Z,2.73
2019-02-12T09:16:22.091Z,3.10
2019-02-12T09:22:20.308Z,3.43
2019-02-12T09:28:00.448Z,3.57
2019-02-12T09:33:58.257Z,2.77
2019-02-12T09:39:41.496Z,2.77
2019-02-12T09:45:43.124Z,2.73
2019-02-12T09:51:10.521Z,2.40
2019-02-12T09:56:42.764Z,3.60
2019-02-12T10:02:19.266Z,3.07
2019-02-12T10:08:32.948Z,2.63
2019-02-12T10:14:07.260Z,1.90
2019-02-12T10:19:23.440Z,2.50
2019-02-12T10:24:58.255Z,2.37
2019-02-12T10:30:59.880Z,2.13
2019-02-12T10:36:14.237Z,2.17
2019-02-12T10:41:28.866Z,1.73
2019-02-12T10:46:43.304Z,2.20
2019-02-12T10:51:57.789Z,2.10
2019-02-12T10:57:12.184Z,2.10
2019-02-12T11:02:27.533Z,1.87
2019-02-12T11:07:42.400Z,1.97
2019-02-12T11:12:57.114Z,2.13
2019-02-12T11:18:11.669Z,1.80
2019-02-12T11:23:26.341Z,1.70
2019-02-12T11:28:40.387Z,1.50
2019-02-12T11:33:54.846Z,1.80
2019-02-12T11:39:09.531Z,1.60
2019-02-12T11:44:23.691Z,1.67
2019-02-12T11:49:38.459Z,1.70
2019-02-12T11:54:53.384Z,1.90
2019-02-12T12:00:10.228Z,1.90
2019-02-12T12:05:24.909Z,1.93
2019-02-12T12:10:39.281Z,2.80
2019-02-12T12:15:53.998Z,1.80
2019-02-12T12:21:08.915Z,1.50
2019-02-12T12:26:23.749Z,2.13
2019-02-12T12:31:38.503Z,2.37
2019-02-12T12:36:53.279Z,1.90
2019-02-12T12:42:08.271Z,2.17
2019-02-12T12:47:22.584Z,2.67
2019-02-12T12:52:37.156Z,2.23
2019-02-12T12:57:52.176Z,1.70
2019-02-12T13:03:06.792Z,2.03
2019-02-12T13:08:21.781Z,2.00
2019-02-12T13:13:36.283Z,2.43
2019-02-12T13:18:52.091Z,1.63
2019-02-12T13:24:21.065Z,1.77
2019-02-12T13:29:35.622Z,1.83
2019-02-12T13:34:50.239Z,1.90
2019-02-12T13:40:05.665Z,1.60
2019-02-12T13:45:20.009Z,1.57
2019-02-12T13:50:34.602Z,1.53
2019-02-12T13:55:49.612Z,1.80
2019-02-12T14:01:05.709Z,1.63
2019-02-12T14:06:20.588Z,2.10
2019-02-12T14:11:36.114Z,2.40
2019-02-12T14:16:53.805Z,1.70
2019-02-12T14:22:08.208Z,2.00
2019-02-12T14:27:22.625Z,1.60
2019-02-12T14:32:36.806Z,1.80
2019-02-12T14:37:52.058Z,1.70
2019-02-12T14:43:13.833Z,1.80
2019-02-12T14:48:23.020Z,1.67
2019-02-12T14:53:37.721Z,1.63
2019-02-12T14:58:52.492Z,1.90
2019-02-12T15:04:07.291Z,1.70
2019-02-12T15:09:21.859Z,1.50
2019-02-12T15:14:36.591Z,1.97
2019-02-12T15:19:51.121Z,1.63
2019-02-12T15:25:06.402Z,1.20
2019-02-12T15:30:21.002Z,1.80
2019-02-12T15:35:35.451Z,1.83
2019-02-12T15:40:51.071Z,2.07
2019-02-12T15:46:07.292Z,1.50
2019-02-12T15:51:22.006Z,1.87
2019-02-12T15:56:36.649Z,1.80
2019-02-12T16:01:52.022Z,2.20
2019-02-12T16:07:06.580Z,1.70
2019-02-12T16:12:21.090Z,1.60
2019-02-12T16:17:37.332Z,1.37
2019-02-12T16:22:51.573Z,1.60
2019-02-12T16:28:05.905Z,1.90
2019-02-12T16:33:20.362Z,1.83
2019-02-12T16:38:34.793Z,1.73
2019-02-12T16:43:49.640Z,1.60
2019-02-12T16:49:04.507Z,1.70
2019-02-12T16:54:19.515Z,2.00
2019-02-12T16:59:33.666Z,2.13
2019-02-12T17:04:48.091Z,1.90
2019-02-12T17:10:02.783Z,2.27
2019-02-12T17:15:17.728Z,2.17
2019-02-12T17:20:32.525Z,2.13
2019-02-12T17:25:46.732Z,1.40
2019-02-12T17:31:01.363Z,1.80
2019-02-12T17:36:16.938Z,2.37
2019-02-12T17:41:31.806Z,2.60
2019-02-12T17:46:46.355Z,1.83
2019-02-12T17:52:01.121Z,2.23
2019-02-12T17:57:16.996Z,2.10
2019-02-12T18:02:31.855Z,1.93
2019-02-12T18:07:46.529Z,1.93
2019-02-12T18:13:01.913Z,2.40
2019-02-12T18:18:16.243Z,1.97
2019-02-12T18:23:31.334Z,2.00
2019-02-12T18:28:47.165Z,1.87
2019-02-12T18:34:03.201Z,2.20
2019-02-12T18:39:21.608Z,1.63
2019-02-12T18:44:36.395Z,2.37
2019-02-12T18:49:50.724Z,2.23
2019-02-12T19:00:22.810Z,1.93
2019-02-12T19:05:37.685Z,2.00
2019-02-12T19:10:52.286Z,2.10
2019-02-12T19:16:08.207Z,2.07
2019-02-12T19:21:22.927Z,2.87
2019-02-12T19:26:39.867Z,2.80
2019-02-12T19:31:59.302Z,2.90
2019-02-12T19:37:13.011Z,3.10
2019-02-12T19:42:27.497Z,2.80
2019-02-12T19:47:44.868Z,2.80
2019-02-12T19:52:59.937Z,3.00
2019-02-12T19:58:14.616Z,2.40
2019-02-12T20:03:29.292Z,3.17
2019-02-12T20:08:43.972Z,3.23
2019-02-12T20:14:01.057Z,3.30
2019-02-12T20:19:20.268Z,3.63
2019-02-12T20:24:38.247Z,3.30
2019-02-12T20:29:53.465Z,3.63
2019-02-12T20:35:13.592Z,4.37
2019-02-12T20:40:30.678Z,3.77
2019-02-12T20:45:47.334Z,4.47
2019-02-12T20:51:04.565Z,4.63
2019-02-12T20:56:19.340Z,4.07
2019-02-12T21:01:33.815Z,4.73
2019-02-12T21:06:48.615Z,5.20
2019-02-12T21:12:03.122Z,5.23
2019-02-12T21:17:17.818Z,5.87
2019-02-12T21:22:32.436Z,6.03
2019-02-12T21:27:47.407Z,6.23
2019-02-12T21:33:01.574Z,6.77
2019-02-12T21:38:18.693Z,5.93
2019-02-12T21:43:36.126Z,5.97
2019-02-12T21:48:50.884Z,6.23
2019-02-12T21:54:05.824Z,5.77
2019-02-12T21:59:20.445Z,6.07
2019-02-12T22:04:35.086Z,5.40
2019-02-12T22:09:49.734Z,5.93
2019-02-12T22:15:04.392Z,5.50
2019-02-12T22:20:19.783Z,5.23
2019-02-12T22:25:34.211Z,5.17
2019-02-12T22:30:51.261Z,5.13
2019-02-12T22:36:05.935Z,5.87
2019-02-12T22:41:23.176Z,5.10
2019-02-12T22:46:38.080Z,4.47
2019-02-12T22:51:52.747Z,5.13
2019-02-12T22:57:07.611Z,4.67
2019-02-12T23:02:22.285Z,5.20
2019-02-12T23:07:36.635Z,5.40
2019-02-12T23:12:51.181Z,5.20
2019-02-12T23:18:05.305Z,5.30
2019-02-12T23:23:19.634Z,5.43
2019-02-12T23:28:34.645Z,5.83
2019-02-12T23:33:49.226Z,5.53
2019-02-12T23:39:04.440Z,5.17
2019-02-12T23:44:20.507Z,4.47
2019-02-12T23:49:36.753Z,6.27
2019-02-12T23:54:51.076Z,6.53
